sensor_id;sensor_type;location;lat;lon;timestamp;P1;durP1;ratioP1;P2;durP2;ratioP2
7045;SDS011;3564;53.326;10.356;2022-08-20T00:00:50;12.63;;;11.40;;
7045;SDS011;3564;53.326;10.356;2022-08-20T00:03:23;14.03;;;12.13;;
7045;SDS011;3564;53.326;10.356;2022-08-20T00:08:29;13.10;;;11.10;;
7045;SDS011;3564;53.326;10.356;2022-08-20T00:10:55;12.23;;;11.13;;
7045;SDS011;3564;53.326;10.356;2022-08-20T00:13:26;12.90;;;11.57;;
7045;SDS011;3564;53.326;10.356;2022-08-20T00:15:56;12.40;;;11.17;;
7045;SDS011;3564;53.326;10.356;2022-08-20T00:18:22;11.97;;;10.77;;
7045;SDS011;3564;53.326;10.356;2022-08-20T00:20:51;15.13;;;12.90;;
7045;SDS011;3564;53.326;10.356;2022-08-20T00:23:18;13.93;;;12.33;;
7045;SDS011;3564;53.326;10.356;2022-08-20T00:25:44;13.33;;;11.57;;
7045;SDS011;3564;53.326;10.356;2022-08-20T00:28:10;12.10;;;10.80;;
7045;SDS011;3564;53.326;10.356;2022-08-20T00:30:38;14.10;;;12.37;;
7045;SDS011;3564;53.326;10.356;2022-08-20T00:33:10;12.47;;;10.97;;
7045;SDS011;3564;53.326;10.356;2022-08-20T00:35:40;11.63;;;10.53;;
7045;SDS011;3564;53.326;10.356;2022-08-20T00:38:08;11.23;;;10.13;;
7045;SDS011;3564;53.326;10.356;2022-08-20T00:40:36;13.80;;;11.17;;
7045;SDS011;3564;53.326;10.356;2022-08-20T00:43:06;12.57;;;11.30;;
7045;SDS011;3564;53.326;10.356;2022-08-20T00:45:48;11.77;;;10.57;;
7045;SDS011;3564;53.326;10.356;2022-08-20T00:48:15;10.80;;;9.80;;
7045;SDS011;3564;53.326;10.356;2022-08-20T00:50:40;11.90;;;10.60;;
7045;SDS011;3564;53.326;10.356;2022-08-20T00:53:06;11.70;;;10.50;;
7045;SDS011;3564;53.326;10.356;2022-08-20T00:55:33;12.10;;;10.83;;
7045;SDS011;3564;53.326;10.356;2022-08-20T00:58:02;11.17;;;10.17;;
7045;SDS011;3564;53.326;10.356;2022-08-20T01:00:34;12.90;;;11.57;;
7045;SDS011;3564;53.326;10.356;2022-08-20T01:03:03;12.70;;;11.47;;
7045;SDS011;3564;53.326;10.356;2022-08-20T01:05:33;12.53;;;11.23;;
7045;SDS011;3564;53.326;10.356;2022-08-20T01:08:00;12.57;;;11.27;;
7045;SDS011;3564;53.326;10.356;2022-08-20T01:10:29;13.00;;;11.57;;
7045;SDS011;3564;53.326;10.356;2022-08-20T01:12:59;13.30;;;11.90;;
7045;SDS011;3564;53.326;10.356;2022-08-20T01:15:28;12.97;;;11.50;;
7045;SDS011;3564;53.326;10.356;2022-08-20T01:17:56;14.37;;;12.17;;
7045;SDS011;3564;53.326;10.356;2022-08-20T01:20:24;14.03;;;12.23;;
7045;SDS011;3564;53.326;10.356;2022-08-20T01:23:09;13.73;;;12.33;;
7045;SDS011;3564;53.326;10.356;2022-08-20T01:28:28;13.93;;;12.40;;
7045;SDS011;3564;53.326;10.356;2022-08-20T01:31:00;12.60;;;11.40;;
7045;SDS011;3564;53.326;10.356;2022-08-20T01:33:26;14.10;;;12.30;;
7045;SDS011;3564;53.326;10.356;2022-08-20T01:35:52;13.13;;;11.73;;
7045;SDS011;3564;53.326;10.356;2022-08-20T01:38:18;13.20;;;11.63;;
7045;SDS011;3564;53.326;10.356;2022-08-20T01:40:54;13.07;;;11.77;;
7045;SDS011;3564;53.326;10.356;2022-08-20T01:43:40;13.53;;;12.13;;
7045;SDS011;3564;53.326;10.356;2022-08-20T01:46:07;13.97;;;12.57;;
7045;SDS011;3564;53.326;10.356;2022-08-20T01:48:34;13.17;;;11.87;;
7045;SDS011;3564;53.326;10.356;2022-08-20T01:51:14;15.27;;;12.97;;
7045;SDS011;3564;53.326;10.356;2022-08-20T01:53:49;12.43;;;11.23;;
7045;SDS011;3564;53.326;10.356;2022-08-20T01:56:18;13.70;;;12.27;;
7045;SDS011;3564;53.326;10.356;2022-08-20T01:58:47;14.60;;;13.03;;
7045;SDS011;3564;53.326;10.356;2022-08-20T02:01:25;14.57;;;13.17;;
7045;SDS011;3564;53.326;10.356;2022-08-20T02:04:02;15.63;;;13.80;;
7045;SDS011;3564;53.326;10.356;2022-08-20T02:06:34;14.40;;;12.60;;
7045;SDS011;3564;53.326;10.356;2022-08-20T02:09:05;14.27;;;12.77;;
7045;SDS011;3564;53.326;10.356;2022-08-20T02:11:32;16.20;;;13.13;;
7045;SDS011;3564;53.326;10.356;2022-08-20T02:13:59;15.03;;;13.43;;
7045;SDS011;3564;53.326;10.356;2022-08-20T02:16:28;16.10;;;14.40;;
7045;SDS011;3564;53.326;10.356;2022-08-20T02:18:57;14.77;;;13.27;;
7045;SDS011;3564;53.326;10.356;2022-08-20T02:21:27;15.83;;;13.47;;
7045;SDS011;3564;53.326;10.356;2022-08-20T02:23:56;15.90;;;13.57;;
7045;SDS011;3564;53.326;10.356;2022-08-20T02:26:23;13.20;;;11.50;;
7045;SDS011;3564;53.326;10.356;2022-08-20T02:28:50;16.07;;;12.63;;
7045;SDS011;3564;53.326;10.356;2022-08-20T02:31:17;15.27;;;13.00;;
7045;SDS011;3564;53.326;10.356;2022-08-20T02:33:45;15.20;;;13.17;;
7045;SDS011;3564;53.326;10.356;2022-08-20T02:36:11;15.17;;;13.43;;
7045;SDS011;3564;53.326;10.356;2022-08-20T02:38:39;13.57;;;12.27;;
7045;SDS011;3564;53.326;10.356;2022-08-20T02:41:06;14.00;;;12.60;;
7045;SDS011;3564;53.326;10.356;2022-08-20T02:43:34;13.73;;;12.33;;
7045;SDS011;3564;53.326;10.356;2022-08-20T02:46:02;13.77;;;12.20;;
7045;SDS011;3564;53.326;10.356;2022-08-20T02:48:29;13.50;;;12.17;;
7045;SDS011;3564;53.326;10.356;2022-08-20T02:50:59;15.23;;;13.00;;
7045;SDS011;3564;53.326;10.356;2022-08-20T02:53:41;17.37;;;12.73;;
7045;SDS011;3564;53.326;10.356;2022-08-20T02:56:07;13.03;;;11.57;;
7045;SDS011;3564;53.326;10.356;2022-08-20T02:58:36;14.03;;;12.60;;
7045;SDS011;3564;53.326;10.356;2022-08-20T03:01:04;13.03;;;11.63;;
7045;SDS011;3564;53.326;10.356;2022-08-20T03:03:42;14.53;;;13.03;;
7045;SDS011;3564;53.326;10.356;2022-08-20T03:06:09;13.93;;;12.43;;
7045;SDS011;3564;53.326;10.356;2022-08-20T03:08:35;14.20;;;11.43;;
7045;SDS011;3564;53.326;10.356;2022-08-20T03:11:02;13.53;;;12.13;;
7045;SDS011;3564;53.326;10.356;2022-08-20T03:13:29;14.60;;;12.87;;
7045;SDS011;3564;53.326;10.356;2022-08-20T03:15:55;13.87;;;12.43;;
7045;SDS011;3564;53.326;10.356;2022-08-20T03:18:25;16.97;;;12.87;;
7045;SDS011;3564;53.326;10.356;2022-08-20T03:20:55;14.40;;;12.90;;
7045;SDS011;3564;53.326;10.356;2022-08-20T03:23:21;15.07;;;12.67;;
7045;SDS011;3564;53.326;10.356;2022-08-20T03:25:47;13.77;;;12.37;;
7045;SDS011;3564;53.326;10.356;2022-08-20T03:28:13;14.03;;;12.63;;
7045;SDS011;3564;53.326;10.356;2022-08-20T03:30:40;15.13;;;12.47;;
7045;SDS011;3564;53.326;10.356;2022-08-20T03:33:06;14.50;;;13.00;;
7045;SDS011;3564;53.326;10.356;2022-08-20T03:35:33;15.10;;;13.33;;
7045;SDS011;3564;53.326;10.356;2022-08-20T03:38:00;14.33;;;12.90;;
7045;SDS011;3564;53.326;10.356;2022-08-20T03:40:31;14.63;;;12.23;;
7045;SDS011;3564;53.326;10.356;2022-08-20T03:43:13;13.83;;;12.40;;
7045;SDS011;3564;53.326;10.356;2022-08-20T03:45:39;12.97;;;11.57;;
7045;SDS011;3564;53.326;10.356;2022-08-20T03:48:08;14.47;;;11.83;;
7045;SDS011;3564;53.326;10.356;2022-08-20T03:50:35;11.70;;;10.50;;
7045;SDS011;3564;53.326;10.356;2022-08-20T03:53:01;12.33;;;11.03;;
7045;SDS011;3564;53.326;10.356;2022-08-20T03:55:28;12.53;;;11.23;;
7045;SDS011;3564;53.326;10.356;2022-08-20T03:57:56;12.13;;;11.03;;
7045;SDS011;3564;53.326;10.356;2022-08-20T04:00:26;12.27;;;11.00;;
7045;SDS011;3564;53.326;10.356;2022-08-20T04:02:54;13.50;;;11.00;;
7045;SDS011;3564;53.326;10.356;2022-08-20T04:05:21;11.20;;;10.10;;
7045;SDS011;3564;53.326;10.356;2022-08-20T04:07:49;11.57;;;10.20;;
7045;SDS011;3564;53.326;10.356;2022-08-20T04:10:16;10.50;;;9.23;;
7045;SDS011;3564;53.326;10.356;2022-08-20T04:12:41;11.20;;;9.37;;
7045;SDS011;3564;53.326;10.356;2022-08-20T04:15:11;10.40;;;9.40;;
7045;SDS011;3564;53.326;10.356;2022-08-20T04:17:40;10.77;;;9.33;;
7045;SDS011;3564;53.326;10.356;2022-08-20T04:20:08;11.07;;;9.67;;
7045;SDS011;3564;53.326;10.356;2022-08-20T04:22:36;9.77;;;8.80;;
7045;SDS011;3564;53.326;10.356;2022-08-20T04:25:03;8.80;;;8.00;;
7045;SDS011;3564;53.326;10.356;2022-08-20T04:27:29;9.30;;;8.40;;
7045;SDS011;3564;53.326;10.356;2022-08-20T04:29:56;9.63;;;8.73;;
7045;SDS011;3564;53.326;10.356;2022-08-20T04:32:24;9.33;;;8.10;;
7045;SDS011;3564;53.326;10.356;2022-08-20T04:34:50;9.03;;;8.13;;
7045;SDS011;3564;53.326;10.356;2022-08-20T04:37:19;9.63;;;8.73;;
7045;SDS011;3564;53.326;10.356;2022-08-20T04:39:46;9.10;;;8.20;;
7045;SDS011;3564;53.326;10.356;2022-08-20T04:42:34;8.87;;;8.03;;
7045;SDS011;3564;53.326;10.356;2022-08-20T04:45:00;8.97;;;8.07;;
7045;SDS011;3564;53.326;10.356;2022-08-20T04:47:28;8.37;;;7.57;;
7045;SDS011;3564;53.326;10.356;2022-08-20T04:49:54;8.97;;;8.17;;
7045;SDS011;3564;53.326;10.356;2022-08-20T04:52:24;8.80;;;8.00;;
7045;SDS011;3564;53.326;10.356;2022-08-20T04:54:52;8.17;;;7.33;;
7045;SDS011;3564;53.326;10.356;2022-08-20T04:57:20;9.00;;;7.63;;
7045;SDS011;3564;53.326;10.356;2022-08-20T04:59:48;8.30;;;7.50;;
7045;SDS011;3564;53.326;10.356;2022-08-20T05:02:15;8.00;;;7.20;;
7045;SDS011;3564;53.326;10.356;2022-08-20T05:04:42;7.93;;;7.20;;
7045;SDS011;3564;53.326;10.356;2022-08-20T05:07:09;8.33;;;7.43;;
7045;SDS011;3564;53.326;10.356;2022-08-20T05:09:36;9.37;;;7.80;;
7045;SDS011;3564;53.326;10.356;2022-08-20T05:12:02;8.07;;;7.17;;
7045;SDS011;3564;53.326;10.356;2022-08-20T05:14:28;9.80;;;7.50;;
7045;SDS011;3564;53.326;10.356;2022-08-20T05:16:53;9.13;;;8.13;;
7045;SDS011;3564;53.326;10.356;2022-08-20T05:19:21;8.83;;;7.93;;
7045;SDS011;3564;53.326;10.356;2022-08-20T05:21:47;8.00;;;7.23;;
7045;SDS011;3564;53.326;10.356;2022-08-20T05:24:17;8.83;;;7.80;;
7045;SDS011;3564;53.326;10.356;2022-08-20T05:26:45;9.93;;;7.90;;
7045;SDS011;3564;53.326;10.356;2022-08-20T05:29:11;8.37;;;7.57;;
7045;SDS011;3564;53.326;10.356;2022-08-20T05:31:37;9.37;;;7.73;;
7045;SDS011;3564;53.326;10.356;2022-08-20T05:34:04;8.73;;;7.83;;
7045;SDS011;3564;53.326;10.356;2022-08-20T05:36:34;8.90;;;8.00;;
7045;SDS011;3564;53.326;10.356;2022-08-20T05:39:00;9.77;;;8.77;;
7045;SDS011;3564;53.326;10.356;2022-08-20T05:41:26;10.53;;;7.60;;
7045;SDS011;3564;53.326;10.356;2022-08-20T05:43:55;10.27;;;8.17;;
7045;SDS011;3564;53.326;10.356;2022-08-20T05:46:25;9.10;;;7.93;;
7045;SDS011;3564;53.326;10.356;2022-08-20T05:48:51;9.20;;;8.27;;
7045;SDS011;3564;53.326;10.356;2022-08-20T05:51:16;10.07;;;8.47;;
7045;SDS011;3564;53.326;10.356;2022-08-20T05:53:42;10.10;;;7.90;;
7045;SDS011;3564;53.326;10.356;2022-08-20T05:56:08;8.77;;;7.87;;
7045;SDS011;3564;53.326;10.356;2022-08-20T05:58:35;10.07;;;9.07;;
7045;SDS011;3564;53.326;10.356;2022-08-20T06:01:01;10.90;;;8.57;;
7045;SDS011;3564;53.326;10.356;2022-08-20T06:03:28;9.63;;;7.93;;
7045;SDS011;3564;53.326;10.356;2022-08-20T06:06:12;9.63;;;8.17;;
7045;SDS011;3564;53.326;10.356;2022-08-20T06:08:37;9.27;;;7.80;;
7045;SDS011;3564;53.326;10.356;2022-08-20T06:11:04;10.07;;;8.37;;
7045;SDS011;3564;53.326;10.356;2022-08-20T06:13:30;9.30;;;8.07;;
7045;SDS011;3564;53.326;10.356;2022-08-20T06:15:56;10.83;;;8.47;;
7045;SDS011;3564;53.326;10.356;2022-08-20T06:18:22;11.07;;;8.10;;
7045;SDS011;3564;53.326;10.356;2022-08-20T06:20:48;9.87;;;8.77;;
7045;SDS011;3564;53.326;10.356;2022-08-20T06:23:15;10.43;;;8.97;;
7045;SDS011;3564;53.326;10.356;2022-08-20T06:25:41;9.63;;;8.47;;
7045;SDS011;3564;53.326;10.356;2022-08-20T06:28:07;12.53;;;8.73;;
7045;SDS011;3564;53.326;10.356;2022-08-20T06:30:32;9.67;;;8.70;;
7045;SDS011;3564;53.326;10.356;2022-08-20T06:32:58;9.07;;;8.17;;
7045;SDS011;3564;53.326;10.356;2022-08-20T06:35:24;10.77;;;8.13;;
7045;SDS011;3564;53.326;10.356;2022-08-20T06:37:50;9.17;;;8.20;;
7045;SDS011;3564;53.326;10.356;2022-08-20T06:40:21;8.70;;;7.77;;
7045;SDS011;3564;53.326;10.356;2022-08-20T06:42:50;7.30;;;6.60;;
7045;SDS011;3564;53.326;10.356;2022-08-20T06:45:18;10.60;;;8.37;;
7045;SDS011;3564;53.326;10.356;2022-08-20T06:47:49;8.27;;;7.10;;
7045;SDS011;3564;53.326;10.356;2022-08-20T06:50:17;8.00;;;7.00;;
7045;SDS011;3564;53.326;10.356;2022-08-20T06:52:46;10.87;;;7.73;;
7045;SDS011;3564;53.326;10.356;2022-08-20T06:55:12;8.77;;;7.93;;
7045;SDS011;3564;53.326;10.356;2022-08-20T06:57:39;8.93;;;8.13;;
7045;SDS011;3564;53.326;10.356;2022-08-20T07:00:07;9.00;;;7.57;;
7045;SDS011;3564;53.326;10.356;2022-08-20T07:02:39;9.40;;;7.97;;
7045;SDS011;3564;53.326;10.356;2022-08-20T07:05:05;10.00;;;7.83;;
7045;SDS011;3564;53.326;10.356;2022-08-20T07:07:32;9.03;;;8.13;;
7045;SDS011;3564;53.326;10.356;2022-08-20T07:10:05;11.80;;;8.90;;
7045;SDS011;3564;53.326;10.356;2022-08-20T07:12:34;9.20;;;8.17;;
7045;SDS011;3564;53.326;10.356;2022-08-20T07:15:04;11.10;;;8.60;;
7045;SDS011;3564;53.326;10.356;2022-08-20T07:17:32;11.13;;;8.43;;
7045;SDS011;3564;53.326;10.356;2022-08-20T07:19:58;10.73;;;7.93;;
7045;SDS011;3564;53.326;10.356;2022-08-20T07:22:32;10.23;;;9.13;;
7045;SDS011;3564;53.326;10.356;2022-08-20T07:25:04;11.77;;;9.00;;
7045;SDS011;3564;53.326;10.356;2022-08-20T07:27:33;9.50;;;8.50;;
7045;SDS011;3564;53.326;10.356;2022-08-20T07:29:59;11.07;;;8.90;;
7045;SDS011;3564;53.326;10.356;2022-08-20T07:32:43;12.53;;;9.57;;
7045;SDS011;3564;53.326;10.356;2022-08-20T07:35:11;8.83;;;7.93;;
7045;SDS011;3564;53.326;10.356;2022-08-20T07:37:40;9.77;;;8.77;;
7045;SDS011;3564;53.326;10.356;2022-08-20T07:40:13;12.07;;;9.30;;
7045;SDS011;3564;53.326;10.356;2022-08-20T07:42:45;12.87;;;10.07;;
7045;SDS011;3564;53.326;10.356;2022-08-20T07:45:12;10.83;;;7.90;;
7045;SDS011;3564;53.326;10.356;2022-08-20T07:47:40;11.73;;;8.80;;
7045;SDS011;3564;53.326;10.356;2022-08-20T07:50:07;9.03;;;7.67;;
7045;SDS011;3564;53.326;10.356;2022-08-20T07:52:34;10.37;;;8.20;;
7045;SDS011;3564;53.326;10.356;2022-08-20T07:55:04;8.50;;;7.63;;
7045;SDS011;3564;53.326;10.356;2022-08-20T07:57:32;10.47;;;8.43;;
7045;SDS011;3564;53.326;10.356;2022-08-20T07:59:58;10.37;;;8.67;;
7045;SDS011;3564;53.326;10.356;2022-08-20T08:02:28;9.63;;;8.70;;
7045;SDS011;3564;53.326;10.356;2022-08-20T08:04:54;10.77;;;8.77;;
7045;SDS011;3564;53.326;10.356;2022-08-20T08:07:21;8.57;;;7.57;;
7045;SDS011;3564;53.326;10.356;2022-08-20T08:09:49;9.10;;;8.20;;
7045;SDS011;3564;53.326;10.356;2022-08-20T08:12:15;8.63;;;7.80;;
7045;SDS011;3564;53.326;10.356;2022-08-20T08:14:41;8.43;;;7.20;;
7045;SDS011;3564;53.326;10.356;2022-08-20T08:17:09;9.67;;;8.07;;
7045;SDS011;3564;53.326;10.356;2022-08-20T08:19:38;7.83;;;6.57;;
7045;SDS011;3564;53.326;10.356;2022-08-20T08:22:07;7.40;;;6.33;;
7045;SDS011;3564;53.326;10.356;2022-08-20T08:24:36;7.67;;;6.93;;
7045;SDS011;3564;53.326;10.356;2022-08-20T08:27:07;6.57;;;5.90;;
7045;SDS011;3564;53.326;10.356;2022-08-20T08:29:33;8.13;;;6.10;;
7045;SDS011;3564;53.326;10.356;2022-08-20T08:32:00;6.53;;;5.90;;
7045;SDS011;3564;53.326;10.356;2022-08-20T08:34:30;7.97;;;6.27;;
7045;SDS011;3564;53.326;10.356;2022-08-20T08:36:57;7.70;;;6.67;;
7045;SDS011;3564;53.326;10.356;2022-08-20T08:39:26;6.23;;;5.53;;
7045;SDS011;3564;53.326;10.356;2022-08-20T08:41:56;8.30;;;6.63;;
7045;SDS011;3564;53.326;10.356;2022-08-20T08:44:26;8.27;;;6.13;;
7045;SDS011;3564;53.326;10.356;2022-08-20T08:46:55;8.20;;;6.77;;
7045;SDS011;3564;53.326;10.356;2022-08-20T08:49:25;6.63;;;6.03;;
7045;SDS011;3564;53.326;10.356;2022-08-20T08:52:00;6.90;;;6.23;;
7045;SDS011;3564;53.326;10.356;2022-08-20T08:54:31;8.23;;;7.40;;
7045;SDS011;3564;53.326;10.356;2022-08-20T08:57:00;9.50;;;8.37;;
7045;SDS011;3564;53.326;10.356;2022-08-20T08:59:26;8.60;;;6.67;;
7045;SDS011;3564;53.326;10.356;2022-08-20T09:01:55;9.90;;;8.70;;
7045;SDS011;3564;53.326;10.356;2022-08-20T09:04:26;10.67;;;7.90;;
7045;SDS011;3564;53.326;10.356;2022-08-20T09:07:05;7.67;;;6.97;;
7045;SDS011;3564;53.326;10.356;2022-08-20T09:09:35;7.20;;;6.60;;
7045;SDS011;3564;53.326;10.356;2022-08-20T09:12:06;8.57;;;7.77;;
7045;SDS011;3564;53.326;10.356;2022-08-20T09:14:34;8.00;;;7.20;;
7045;SDS011;3564;53.326;10.356;2022-08-20T09:17:00;7.27;;;6.57;;
7045;SDS011;3564;53.326;10.356;2022-08-20T09:19:26;7.50;;;5.90;;
7045;SDS011;3564;53.326;10.356;2022-08-20T09:21:52;5.77;;;5.27;;
7045;SDS011;3564;53.326;10.356;2022-08-20T09:24:17;7.47;;;5.33;;
7045;SDS011;3564;53.326;10.356;2022-08-20T09:26:43;6.43;;;4.90;;
7045;SDS011;3564;53.326;10.356;2022-08-20T09:29:09;6.60;;;4.63;;
7045;SDS011;3564;53.326;10.356;2022-08-20T09:31:35;6.53;;;4.23;;
7045;SDS011;3564;53.326;10.356;2022-08-20T09:34:01;5.07;;;4.57;;
7045;SDS011;3564;53.326;10.356;2022-08-20T09:36:26;4.77;;;4.30;;
7045;SDS011;3564;53.326;10.356;2022-08-20T09:38:52;6.23;;;4.50;;
7045;SDS011;3564;53.326;10.356;2022-08-20T09:41:18;5.10;;;4.10;;
7045;SDS011;3564;53.326;10.356;2022-08-20T09:43:44;4.57;;;3.63;;
7045;SDS011;3564;53.326;10.356;2022-08-20T09:46:09;4.10;;;3.70;;
7045;SDS011;3564;53.326;10.356;2022-08-20T09:48:35;4.10;;;3.67;;
7045;SDS011;3564;53.326;10.356;2022-08-20T09:51:00;5.17;;;3.40;;
7045;SDS011;3564;53.326;10.356;2022-08-20T09:53:26;4.67;;;4.07;;
7045;SDS011;3564;53.326;10.356;2022-08-20T09:55:53;4.73;;;3.53;;
7045;SDS011;3564;53.326;10.356;2022-08-20T09:58:25;7.50;;;3.33;;
7045;SDS011;3564;53.326;10.356;2022-08-20T10:00:58;6.87;;;3.67;;
7045;SDS011;3564;53.326;10.356;2022-08-20T10:03:27;4.37;;;3.73;;
7045;SDS011;3564;53.326;10.356;2022-08-20T10:05:53;4.20;;;2.57;;
7045;SDS011;3564;53.326;10.356;2022-08-20T10:08:18;5.17;;;3.00;;
7045;SDS011;3564;53.326;10.356;2022-08-20T10:10:44;3.93;;;3.00;;
7045;SDS011;3564;53.326;10.356;2022-08-20T10:13:09;4.80;;;3.90;;
7045;SDS011;3564;53.326;10.356;2022-08-20T10:15:35;5.73;;;3.80;;
7045;SDS011;3564;53.326;10.356;2022-08-20T10:18:03;4.30;;;3.90;;
7045;SDS011;3564;53.326;10.356;2022-08-20T10:20:31;4.67;;;3.77;;
7045;SDS011;3564;53.326;10.356;2022-08-20T10:22:58;6.60;;;4.00;;
7045;SDS011;3564;53.326;10.356;2022-08-20T10:25:24;6.83;;;3.90;;
7045;SDS011;3564;53.326;10.356;2022-08-20T10:27:50;3.83;;;3.37;;
7045;SDS011;3564;53.326;10.356;2022-08-20T10:30:15;7.33;;;3.83;;
7045;SDS011;3564;53.326;10.356;2022-08-20T10:32:41;6.20;;;3.17;;
7045;SDS011;3564;53.326;10.356;2022-08-20T10:35:07;4.87;;;3.13;;
7045;SDS011;3564;53.326;10.356;2022-08-20T10:37:33;4.00;;;2.90;;
7045;SDS011;3564;53.326;10.356;2022-08-20T10:40:01;5.90;;;3.17;;
7045;SDS011;3564;53.326;10.356;2022-08-20T10:42:27;4.87;;;2.70;;
7045;SDS011;3564;53.326;10.356;2022-08-20T10:44:53;4.67;;;2.80;;
7045;SDS011;3564;53.326;10.356;2022-08-20T10:49:57;32.77;;;4.53;;
7045;SDS011;3564;53.326;10.356;2022-08-20T10:52:25;7.00;;;2.97;;
7045;SDS011;3564;53.326;10.356;2022-08-20T10:54:51;22.00;;;4.20;;
7045;SDS011;3564;53.326;10.356;2022-08-20T10:57:19;77.97;;;9.93;;
7045;SDS011;3564;53.326;10.356;2022-08-20T10:59:52;6.37;;;2.70;;
7045;SDS011;3564;53.326;10.356;2022-08-20T11:02:19;6.13;;;2.70;;
7045;SDS011;3564;53.326;10.356;2022-08-20T11:04:46;5.50;;;2.57;;
7045;SDS011;3564;53.326;10.356;2022-08-20T11:07:16;19.80;;;4.07;;
7045;SDS011;3564;53.326;10.356;2022-08-20T11:09:42;6.80;;;2.80;;
7045;SDS011;3564;53.326;10.356;2022-08-20T11:12:08;4.63;;;2.47;;
7045;SDS011;3564;53.326;10.356;2022-08-20T11:14:34;4.53;;;2.33;;
7045;SDS011;3564;53.326;10.356;2022-08-20T11:17:00;5.30;;;2.50;;
7045;SDS011;3564;53.326;10.356;2022-08-20T11:19:27;3.33;;;2.20;;
7045;SDS011;3564;53.326;10.356;2022-08-20T11:21:54;4.13;;;1.93;;
7045;SDS011;3564;53.326;10.356;2022-08-20T11:24:19;4.30;;;2.30;;
7045;SDS011;3564;53.326;10.356;2022-08-20T11:26:46;4.23;;;2.23;;
7045;SDS011;3564;53.326;10.356;2022-08-20T11:29:14;3.37;;;2.40;;
7045;SDS011;3564;53.326;10.356;2022-08-20T11:31:41;4.93;;;2.47;;
7045;SDS011;3564;53.326;10.356;2022-08-20T11:34:07;5.77;;;2.50;;
7045;SDS011;3564;53.326;10.356;2022-08-20T11:36:32;3.87;;;2.37;;
7045;SDS011;3564;53.326;10.356;2022-08-20T11:38:58;7.10;;;2.40;;
7045;SDS011;3564;53.326;10.356;2022-08-20T11:41:24;6.50;;;2.73;;
7045;SDS011;3564;53.326;10.356;2022-08-20T11:43:50;7.17;;;2.80;;
7045;SDS011;3564;53.326;10.356;2022-08-20T11:46:15;3.70;;;2.40;;
7045;SDS011;3564;53.326;10.356;2022-08-20T11:48:41;2.93;;;2.17;;
7045;SDS011;3564;53.326;10.356;2022-08-20T11:51:08;10.80;;;2.60;;
7045;SDS011;3564;53.326;10.356;2022-08-20T11:53:33;5.37;;;2.37;;
7045;SDS011;3564;53.326;10.356;2022-08-20T11:55:59;7.87;;;2.37;;
7045;SDS011;3564;53.326;10.356;2022-08-20T11:58:25;4.47;;;2.10;;
7045;SDS011;3564;53.326;10.356;2022-08-20T12:00:51;4.20;;;2.33;;
7045;SDS011;3564;53.326;10.356;2022-08-20T12:03:16;4.77;;;2.40;;
7045;SDS011;3564;53.326;10.356;2022-08-20T12:05:43;5.97;;;2.30;;
7045;SDS011;3564;53.326;10.356;2022-08-20T12:08:10;4.73;;;2.13;;
7045;SDS011;3564;53.326;10.356;2022-08-20T12:10:37;3.97;;;2.20;;
7045;SDS011;3564;53.326;10.356;2022-08-20T12:13:04;5.50;;;2.63;;
7045;SDS011;3564;53.326;10.356;2022-08-20T12:15:31;5.47;;;2.10;;
7045;SDS011;3564;53.326;10.356;2022-08-20T12:17:58;4.50;;;2.30;;
7045;SDS011;3564;53.326;10.356;2022-08-20T12:20:25;4.07;;;2.23;;
7045;SDS011;3564;53.326;10.356;2022-08-20T12:22:51;4.53;;;2.27;;
7045;SDS011;3564;53.326;10.356;2022-08-20T12:25:18;7.47;;;2.50;;
7045;SDS011;3564;53.326;10.356;2022-08-20T12:27:44;6.23;;;2.40;;
7045;SDS011;3564;53.326;10.356;2022-08-20T12:30:12;6.10;;;2.47;;
7045;SDS011;3564;53.326;10.356;2022-08-20T12:32:40;5.90;;;2.43;;
7045;SDS011;3564;53.326;10.356;2022-08-20T12:35:09;7.20;;;2.47;;
7045;SDS011;3564;53.326;10.356;2022-08-20T12:37:36;6.20;;;2.30;;
7045;SDS011;3564;53.326;10.356;2022-08-20T12:40:02;3.95;;;2.90;;
7045;SDS011;3564;53.326;10.356;2022-08-20T12:42:30;4.28;;;2.30;;
7045;SDS011;3564;53.326;10.356;2022-08-20T12:44:56;5.38;;;2.72;;
7045;SDS011;3564;53.326;10.356;2022-08-20T12:47:25;5.00;;;3.05;;
7045;SDS011;3564;53.326;10.356;2022-08-20T12:49:56;5.40;;;2.60;;
7045;SDS011;3564;53.326;10.356;2022-08-20T12:52:25;5.13;;;2.17;;
7045;SDS011;3564;53.326;10.356;2022-08-20T12:54:51;5.70;;;2.42;;
7045;SDS011;3564;53.326;10.356;2022-08-20T12:57:25;5.50;;;2.20;;
7045;SDS011;3564;53.326;10.356;2022-08-20T12:59:59;5.60;;;2.30;;
7045;SDS011;3564;53.326;10.356;2022-08-20T13:02:33;4.70;;;2.40;;
7045;SDS011;3564;53.326;10.356;2022-08-20T13:04:59;6.07;;;2.45;;
7045;SDS011;3564;53.326;10.356;2022-08-20T13:07:24;5.90;;;2.17;;
7045;SDS011;3564;53.326;10.356;2022-08-20T13:09:50;4.30;;;2.43;;
7045;SDS011;3564;53.326;10.356;2022-08-20T13:12:16;4.90;;;2.43;;
7045;SDS011;3564;53.326;10.356;2022-08-20T13:14:41;5.97;;;2.37;;
7045;SDS011;3564;53.326;10.356;2022-08-20T13:17:07;9.53;;;2.77;;
7045;SDS011;3564;53.326;10.356;2022-08-20T13:19:35;5.70;;;2.20;;
7045;SDS011;3564;53.326;10.356;2022-08-20T13:22:02;5.63;;;1.90;;
7045;SDS011;3564;53.326;10.356;2022-08-20T13:24:28;4.80;;;1.80;;
7045;SDS011;3564;53.326;10.356;2022-08-20T13:27:02;3.92;;;2.25;;
7045;SDS011;3564;53.326;10.356;2022-08-20T13:29:29;4.93;;;2.17;;
7045;SDS011;3564;53.326;10.356;2022-08-20T13:31:54;6.17;;;2.53;;
7045;SDS011;3564;53.326;10.356;2022-08-20T13:34:20;5.00;;;2.10;;
7045;SDS011;3564;53.326;10.356;2022-08-20T13:36:45;5.10;;;2.10;;
7045;SDS011;3564;53.326;10.356;2022-08-20T13:39:11;6.78;;;2.05;;
7045;SDS011;3564;53.326;10.356;2022-08-20T13:41:38;7.05;;;2.30;;
7045;SDS011;3564;53.326;10.356;2022-08-20T13:44:03;3.73;;;1.70;;
7045;SDS011;3564;53.326;10.356;2022-08-20T13:46:29;3.50;;;1.83;;
7045;SDS011;3564;53.326;10.356;2022-08-20T13:48:55;6.35;;;2.78;;
7045;SDS011;3564;53.326;10.356;2022-08-20T13:51:20;3.13;;;1.90;;
7045;SDS011;3564;53.326;10.356;2022-08-20T13:53:46;4.67;;;2.10;;
7045;SDS011;3564;53.326;10.356;2022-08-20T13:56:12;9.07;;;2.73;;
7045;SDS011;3564;53.326;10.356;2022-08-20T13:58:37;8.00;;;3.27;;
7045;SDS011;3564;53.326;10.356;2022-08-20T14:01:03;9.98;;;2.05;;
7045;SDS011;3564;53.326;10.356;2022-08-20T14:03:29;4.43;;;2.00;;
7045;SDS011;3564;53.326;10.356;2022-08-20T14:05:54;6.67;;;2.00;;
7045;SDS011;3564;53.326;10.356;2022-08-20T14:08:23;3.87;;;1.83;;
7045;SDS011;3564;53.326;10.356;2022-08-20T14:10:51;4.90;;;1.80;;
7045;SDS011;3564;53.326;10.356;2022-08-20T14:13:17;6.17;;;1.90;;
7045;SDS011;3564;53.326;10.356;2022-08-20T14:15:44;5.03;;;1.63;;
7045;SDS011;3564;53.326;10.356;2022-08-20T14:18:10;4.60;;;2.07;;
7045;SDS011;3564;53.326;10.356;2022-08-20T14:20:36;6.45;;;1.90;;
7045;SDS011;3564;53.326;10.356;2022-08-20T14:23:03;5.57;;;2.13;;
7045;SDS011;3564;53.326;10.356;2022-08-20T14:25:30;4.07;;;1.83;;
7045;SDS011;3564;53.326;10.356;2022-08-20T14:27:56;3.35;;;1.77;;
7045;SDS011;3564;53.326;10.356;2022-08-20T14:30:27;5.25;;;2.13;;
7045;SDS011;3564;53.326;10.356;2022-08-20T14:32:54;5.03;;;1.77;;
7045;SDS011;3564;53.326;10.356;2022-08-20T14:35:20;6.60;;;1.93;;
7045;SDS011;3564;53.326;10.356;2022-08-20T14:37:47;5.40;;;1.63;;
7045;SDS011;3564;53.326;10.356;2022-08-20T14:40:18;3.58;;;1.80;;
7045;SDS011;3564;53.326;10.356;2022-08-20T14:42:46;4.32;;;1.70;;
7045;SDS011;3564;53.326;10.356;2022-08-20T14:45:13;5.78;;;1.95;;
7045;SDS011;3564;53.326;10.356;2022-08-20T14:47:45;4.95;;;2.03;;
7045;SDS011;3564;53.326;10.356;2022-08-20T14:50:18;5.72;;;2.28;;
7045;SDS011;3564;53.326;10.356;2022-08-20T14:52:47;5.28;;;2.75;;
7045;SDS011;3564;53.326;10.356;2022-08-20T14:55:14;5.55;;;2.00;;
7045;SDS011;3564;53.326;10.356;2022-08-20T14:57:42;2.30;;;1.50;;
7045;SDS011;3564;53.326;10.356;2022-08-20T15:00:10;2.20;;;1.70;;
7045;SDS011;3564;53.326;10.356;2022-08-20T15:02:40;4.32;;;1.70;;
7045;SDS011;3564;53.326;10.356;2022-08-20T15:05:06;4.95;;;2.00;;